createdAt,value
2022-12-25T00:04:54.621Z,0.1
2022-12-25T00:09:52.009Z,0.1
2022-12-25T00:14:51.088Z,0.1
2022-12-25T00:19:50.603Z,0.1
2022-12-25T00:24:52.039Z,0.1
2022-12-25T00:29:48.695Z,0.1
2022-12-25T00:34:48.620Z,0.1
2022-12-25T00:39:47.734Z,0.1
2022-12-25T00:44:47.279Z,0.1
2022-12-25T00:49:46.627Z,0.1
2022-12-25T00:54:47.008Z,0.1
2022-12-25T00:59:04.481Z,0.1
2022-12-25T01:04:05.487Z,0.1
2022-12-25T01:09:02.732Z,0.1
2022-12-25T01:14:02.539Z,0.1
2022-12-25T01:19:01.305Z,0.1
2022-12-25T01:24:01.238Z,0.1
2022-12-25T01:28:59.622Z,0.1
2022-12-25T01:34:00.023Z,0.1
2022-12-25T01:38:59.047Z,0.1
2022-12-25T01:44:00.357Z,0.1
2022-12-25T01:48:57.316Z,0.1
2022-12-25T01:53:59.065Z,0.1
2022-12-25T01:58:57.251Z,0.1
2022-12-25T02:03:57.105Z,0.1
2022-12-25T02:08:58.056Z,0.1
2022-12-25T02:13:57.448Z,0.1
2022-12-25T02:18:56.723Z,0.1
2022-12-25T02:23:56.319Z,0.1
2022-12-25T02:28:56.213Z,0.1
2022-12-25T02:33:55.707Z,0.1
2022-12-25T02:38:56.026Z,0.1
2022-12-25T02:48:52.782Z,0.1
2022-12-25T02:53:52.220Z,0.1
2022-12-25T02:58:51.757Z,0.1
2022-12-25T03:03:49.199Z,0.1
2022-12-25T03:08:48.466Z,0.1
2022-12-25T03:13:48.998Z,0.1
2022-12-25T03:18:50.115Z,0.1
2022-12-25T03:23:46.423Z,0.1
2022-12-25T03:28:46.411Z,0.1
2022-12-25T03:33:47.372Z,0.1
2022-12-25T03:38:45.731Z,0.1
2022-12-25T03:43:43.262Z,0.1
2022-12-25T03:48:43.442Z,0.1
2022-12-25T03:53:43.418Z,0.1
2022-12-25T03:58:44.667Z,0.1
2022-12-25T04:03:42.011Z,0.1
2022-12-25T04:08:42.181Z,0.1
2022-12-25T04:13:41.530Z,0.1
2022-12-25T04:18:40.859Z,0.1
2022-12-25T04:23:40.449Z,0.1
2022-12-25T04:28:40.823Z,0.1
2022-12-25T04:33:39.680Z,0.1
2022-12-25T04:38:41.100Z,0.1
2022-12-25T04:43:37.177Z,0.1
2022-12-25T04:48:37.066Z,0.1
2022-12-25T04:53:36.341Z,0.1
2022-12-25T04:58:35.746Z,0.1
2022-12-25T04:59:57.016Z,0.1
2022-12-25T05:04:56.665Z,0.1
2022-12-25T05:09:56.252Z,0.1
2022-12-25T05:14:57.192Z,0.1
2022-12-25T05:19:53.534Z,0.1
2022-12-25T05:24:53.407Z,0.1
2022-12-25T05:29:52.925Z,0.1
2022-12-25T05:34:52.304Z,0.1
2022-12-25T05:39:51.299Z,0.1
2022-12-25T05:44:51.602Z,0.1
2022-12-25T05:49:51.193Z,0.1
2022-12-25T05:54:48.540Z,0.1
2022-12-25T05:58:51.781Z,0.1
2022-12-25T06:03:52.462Z,0.1
2022-12-25T06:08:51.560Z,0.1
2022-12-25T06:13:49.609Z,0.1
2022-12-25T06:18:49.645Z,0.1
2022-12-25T06:23:49.576Z,0.1
2022-12-25T06:28:48.721Z,0.1
2022-12-25T06:33:46.487Z,0.1
2022-12-25T06:38:45.875Z,0.1
2022-12-25T06:43:45.427Z,0.1
2022-12-25T06:48:45.207Z,0.2
2022-12-25T06:53:44.215Z,0.2
2022-12-25T06:58:43.727Z,0.4
2022-12-25T07:03:43.891Z,1
2022-12-25T07:08:43.606Z,1.9
2022-12-25T07:13:44.194Z,3.2
2022-12-25T07:18:40.530Z,3.3
2022-12-25T07:23:41.167Z,3.7
2022-12-25T07:28:42.270Z,5.1
2022-12-25T07:33:38.165Z,6.4
2022-12-25T07:38:38.181Z,7.1
2022-12-25T07:43:38.463Z,7.7
2022-12-25T07:48:37.617Z,8.2
2022-12-25T07:53:37.459Z,9
2022-12-25T07:58:37.509Z,12.4
2022-12-25T07:59:59.262Z,12.9
2022-12-25T08:05:00.353Z,17.6
2022-12-25T08:09:56.629Z,19.9
2022-12-25T08:14:56.743Z,20.6
2022-12-25T08:19:56.131Z,21.5
2022-12-25T08:24:55.782Z,30.7
2022-12-25T08:29:53.405Z,43.9
2022-12-25T08:34:53.361Z,64.9
2022-12-25T08:39:52.972Z,57.7
2022-12-25T08:44:52.849Z,49.8
2022-12-25T08:49:52.772Z,63.3
2022-12-25T08:54:52.279Z,78.6
2022-12-25T08:59:12.648Z,69.5
2022-12-25T09:04:12.133Z,135.1
2022-12-25T09:09:10.738Z,88
2022-12-25T09:14:11.377Z,92.4
2022-12-25T09:19:10.644Z,92.8
2022-12-25T09:24:11.993Z,90.9
2022-12-25T09:29:08.450Z,147.3
2022-12-25T09:34:09.719Z,134.5
2022-12-25T09:39:07.705Z,98
2022-12-25T09:44:07.842Z,111.3
2022-12-25T09:49:05.057Z,75.5
2022-12-25T09:54:05.131Z,77.1
2022-12-25T09:58:32.478Z,100.1
2022-12-25T10:03:32.916Z,98
2022-12-25T10:08:32.067Z,84.3
2022-12-25T10:13:32.094Z,87.6
2022-12-25T10:18:31.333Z,73.4
2022-12-25T10:23:31.012Z,101.2
2022-12-25T10:28:32.010Z,173.7
2022-12-25T10:33:28.230Z,186
2022-12-25T10:38:28.154Z,185.8
2022-12-25T10:43:27.550Z,142.2
2022-12-25T10:48:26.643Z,161.8
2022-12-25T10:53:26.524Z,226.7
2022-12-25T10:58:26.366Z,189.2
2022-12-25T10:59:49.556Z,146.8
2022-12-25T11:04:46.462Z,136.6
2022-12-25T11:09:45.949Z,173.3
2022-12-25T11:14:45.515Z,146.8
2022-12-25T11:19:45.230Z,109
2022-12-25T11:24:43.274Z,133.2
2022-12-25T11:29:41.973Z,147.2
2022-12-25T11:34:42.775Z,125.1
2022-12-25T11:39:42.473Z,142.4
2022-12-25T11:44:41.949Z,132.8
2022-12-25T11:49:47.200Z,110
2022-12-25T11:54:41.391Z,130.3
2022-12-25T11:58:54.215Z,268
2022-12-25T12:03:55.605Z,281.3
2022-12-25T12:08:52.014Z,275.9
2022-12-25T12:13:52.616Z,256.9
2022-12-25T12:18:52.887Z,246.7
2022-12-25T12:23:52.319Z,241.4
2022-12-25T12:28:52.223Z,240.2
2022-12-25T12:33:52.027Z,234.4
2022-12-25T12:38:52.187Z,228.1
2022-12-25T12:43:48.823Z,226.9
2022-12-25T12:48:48.994Z,224.3
2022-12-25T12:53:48.763Z,218.6
2022-12-25T12:58:48.806Z,215.1
2022-12-25T13:03:48.404Z,210.8
2022-12-25T13:08:47.598Z,209.2
2022-12-25T13:13:47.374Z,217
2022-12-25T13:18:47.147Z,79.4
2022-12-25T13:23:48.242Z,90.8
2022-12-25T13:28:43.974Z,85.1
2022-12-25T13:33:43.608Z,74.2
2022-12-25T13:38:42.767Z,62.6
2022-12-25T13:43:42.656Z,89.2
2022-12-25T13:48:41.282Z,138.9
2022-12-25T13:53:40.431Z,142.9
2022-12-25T13:58:39.770Z,118.2
2022-12-25T14:00:19.506Z,156.5
2022-12-25T14:05:01.330Z,176.6
2022-12-25T14:10:02.190Z,120
2022-12-25T14:15:02.816Z,64.5
2022-12-25T14:20:09.373Z,63.2
2022-12-25T14:24:58.457Z,45.2
2022-12-25T14:29:58.296Z,29
2022-12-25T14:34:57.387Z,28.4
2022-12-25T14:39:55.098Z,23.2
2022-12-25T14:44:54.352Z,13.2
2022-12-25T14:49:54.935Z,12.7
2022-12-25T14:54:54.019Z,13.7
2022-12-25T14:59:24.915Z,12.7
2022-12-25T15:04:25.177Z,9.2
2022-12-25T15:09:25.185Z,8.9
2022-12-25T15:14:12.839Z,7.5
2022-12-25T15:19:12.804Z,5.5
2022-12-25T15:24:11.964Z,4.1
2022-12-25T15:29:11.270Z,2.8
2022-12-25T15:34:09.954Z,1.6
2022-12-25T15:39:09.640Z,1
2022-12-25T15:44:09.371Z,1.1
2022-12-25T15:49:10.117Z,0.6
2022-12-25T15:54:07.365Z,0.4
2022-12-25T15:59:00.357Z,0.3
2022-12-25T16:04:00.534Z,0.2
2022-12-25T16:08:59.908Z,0.2
2022-12-25T16:13:59.341Z,0.2
2022-12-25T16:18:58.986Z,0.1
2022-12-25T16:23:58.828Z,0.2
2022-12-25T16:29:50.302Z,0.2
2022-12-25T16:33:57.989Z,0.2
2022-12-25T16:38:58.000Z,0.1
2022-12-25T16:43:56.449Z,0.1
2022-12-25T16:48:55.843Z,0.2
2022-12-25T16:53:55.617Z,0.1
2022-12-25T16:58:54.245Z,0.2
2022-12-25T17:03:53.789Z,0.2
2022-12-25T17:08:54.026Z,0.2
2022-12-25T17:13:53.875Z,0.1
2022-12-25T17:18:52.683Z,0.1
2022-12-25T17:24:02.224Z,0.1
2022-12-25T17:28:52.295Z,0.1
2022-12-25T17:33:52.444Z,0.1
2022-12-25T17:38:49.555Z,0.1
2022-12-25T17:43:49.437Z,0.1
2022-12-25T17:48:48.968Z,0.2
2022-12-25T17:53:48.495Z,0.1
2022-12-25T17:58:48.095Z,0.1
2022-12-25T18:03:48.001Z,0.1
2022-12-25T18:08:47.987Z,0.1
2022-12-25T18:13:46.894Z,0.2
2022-12-25T18:18:53.921Z,0.1
2022-12-25T18:23:44.246Z,0.1
2022-12-25T18:28:45.078Z,0.1
2022-12-25T18:33:44.035Z,0.1
2022-12-25T18:38:43.567Z,0.1
2022-12-25T18:43:57.154Z,0.1
2022-12-25T18:48:43.411Z,0.1
2022-12-25T18:53:42.543Z,0.1
2022-12-25T18:58:43.945Z,0.2
2022-12-25T19:03:41.595Z,0.1
2022-12-25T19:08:42.176Z,0.2
2022-12-25T19:13:40.413Z,0.1
2022-12-25T19:18:40.595Z,0.1
2022-12-25T19:23:39.868Z,0.1
2022-12-25T19:28:41.023Z,0.2
2022-12-25T19:33:37.298Z,0.1
2022-12-25T19:38:36.554Z,0.1
2022-12-25T19:43:36.201Z,0.1
2022-12-25T19:48:35.703Z,0.1
2022-12-25T19:53:35.161Z,0.1
2022-12-25T19:58:35.184Z,0.1
2022-12-25T19:59:56.718Z,0.1
2022-12-25T20:04:57.709Z,0.1
2022-12-25T20:09:53.631Z,0.1
2022-12-25T20:14:53.548Z,0.1
2022-12-25T20:19:52.744Z,0.1
2022-12-25T20:24:53.343Z,0.1
2022-12-25T20:29:50.164Z,0.1
2022-12-25T20:34:49.748Z,0.1
2022-12-25T20:39:50.034Z,0.1
2022-12-25T20:44:49.820Z,0.2
2022-12-25T20:49:48.963Z,0.1
2022-12-25T20:54:49.720Z,0.1
2022-12-25T20:58:49.813Z,0.1
2022-12-25T21:03:49.984Z,0.1
2022-12-25T21:08:47.476Z,0.1
2022-12-25T21:13:47.634Z,0.1
2022-12-25T21:18:46.888Z,0.1
2022-12-25T21:23:48.016Z,0.1
2022-12-25T21:28:44.195Z,0.1
2022-12-25T21:33:43.993Z,0.1
2022-12-25T21:38:43.871Z,0.1
2022-12-25T21:43:44.223Z,0.1
2022-12-25T21:48:41.145Z,0.1
2022-12-25T21:53:41.618Z,0.1
2022-12-25T21:58:40.868Z,0.1
2022-12-25T22:03:40.278Z,0.1
2022-12-25T22:08:39.412Z,0.1
2022-12-25T22:13:39.562Z,0.1
2022-12-25T22:18:39.473Z,0.1
2022-12-25T22:23:38.870Z,0.1
2022-12-25T22:28:40.164Z,0.1
2022-12-25T22:33:37.863Z,0.1
2022-12-25T22:38:37.588Z,0.1
2022-12-25T22:44:19.118Z,0.1
2022-12-25T22:48:35.200Z,0.1
2022-12-25T22:53:35.423Z,0.1
2022-12-25T22:58:34.582Z,0.1
2022-12-25T22:59:56.606Z,0.1
2022-12-25T23:04:54.272Z,0.1
2022-12-25T23:09:53.919Z,0.2
2022-12-25T23:14:54.093Z,0.2
2022-12-25T23:19:53.404Z,0.1
2022-12-25T23:24:53.421Z,0.1
2022-12-25T23:29:52.673Z,0.1
2022-12-25T23:34:52.395Z,0.1
2022-12-25T23:39:51.730Z,0.1
2022-12-25T23:44:52.781Z,0.1
2022-12-25T23:49:48.945Z,0.1
2022-12-25T23:54:48.873Z,0.1
2022-12-25T23:58:50.612Z,0.1
